Time;durP1;ratioP1;P1;durP2;ratioP2;P2;SDS_P1;SDS_P2;PMS_P1;PMS_P2;Temp;Humidity;BMP_temperature;BMP_pressure;BME280_temperature;BME280_humidity;BME280_pressure;Samples;Min_cycle;Max_cycle;Signal;HPM_P1;HPM_P2
2022/03/14 05:22:23;;;;;;;;;;;;;;;4.94;100.00;99768.91;4826948;29;19988;-70
2022/03/14 05:24:51;;;;;;;;;;;;;;;4.91;100.00;99777.88;4825526;29;20357;-68
2022/03/14 05:27:18;;;;;;;;;;;;;;;4.92;100.00;99788.63;4828206;29;20015;-71
2022/03/14 05:29:46;;;;;;;;;;;;;;;4.92;100.00;99785.03;4829329;29;20358;-70
2022/03/14 05:32:13;;;;;;;;;;;;;;;4.92;100.00;99782.25;4827249;29;19987;-67
2022/03/14 05:34:40;;;;;;;;;;;;;;;4.97;100.00;99782.94;4826808;29;19950;-71
2022/03/14 05:37:08;;;;;;;;;;;;;;;5.02;100.00;99793.84;4827068;29;19957;-70
2022/03/14 05:39:35;;;;;;;;;;;;;;;5.05;100.00;99786.84;4827695;29;19951;-71
2022/03/14 05:42:03;;;;;;;;;;;;;;;5.06;100.00;99785.72;4827265;29;19963;-71
2022/03/14 05:44:31;;;;;;;;;;;;;;;5.08;100.00;99791.75;4827242;29;20367;-71
2022/03/14 05:46:58;;;;;;;;;;;;;;;5.11;100.00;99783.56;4827247;29;20460;-71
2022/03/14 05:49:25;;;;;;;;;;;;;;;5.17;100.00;99789.78;4826339;29;19953;-71
2022/03/14 05:51:53;;;;;;;;;;;;;;;5.11;100.00;99802.97;4827262;29;19956;-69
2022/03/14 05:54:23;;;;;;;;;;;;;;;5.13;100.00;99808.22;4810974;29;19971;-71
2022/03/14 05:56:50;;;;;;;;;;;;;;;5.09;100.00;99810.81;4826981;29;19964;-71
2022/03/14 05:59:36;;;;;;;;;;;;;;;5.11;100.00;99804.97;4827383;29;19963;-71
2022/03/14 06:02:03;;;;;;;;;;;;;;;5.09;100.00;99812.78;4824684;29;19956;-71
2022/03/14 06:07:56;;;;;;;;;;;;;;;5.15;100.00;99823.41;4808935;29;19967;-71
2022/03/14 06:10:25;;;;;;;;;;;;;;;5.20;100.00;99831.56;4826137;29;19960;-70
2022/03/14 06:12:52;;;;;;;;;;;;;;;5.20;100.00;99817.69;4826199;29;19953;-71
2022/03/14 06:18:43;;;;;;;;;;;;;;;5.21;100.00;99835.13;4821465;29;20566;-71
2022/03/14 06:21:11;;;;;;;;;;;;;;;5.25;100.00;99848.03;4825503;29;19983;-71
2022/03/14 06:23:38;;;;;;;;;;;;;;;5.30;100.00;99852.59;4826702;29;19972;-72
2022/03/14 06:26:05;;;;;;;;;;;;;;;5.31;100.00;99846.72;4820900;29;19959;-71
2022/03/14 06:28:32;;;;;;;;;;;;;;;5.31;100.00;99855.03;4821937;29;20439;-71
2022/03/14 06:31:00;;;;;;;;;;;;;;;5.39;100.00;99858.13;4823368;29;20257;-71
2022/03/14 06:33:27;;;;;;;;;;;;;;;5.46;100.00;99859.28;4825271;29;20258;-71
2022/03/14 06:35:54;;;;;;;;;;;;;;;5.48;100.00;99864.53;4825876;29;20242;-70
2022/03/14 06:38:22;;;;;;;;;;;;;;;5.55;100.00;99860.09;4824689;29;19952;-71
2022/03/14 06:40:50;;;;;;;;;;;;;;;5.63;100.00;99862.06;4826443;29;19953;-71
2022/03/14 06:43:18;;;;;;;;;;;;;;;5.65;100.00;99851.44;4824124;29;19953;-71
2022/03/14 06:45:46;;;;;;;;;;;;;;;5.69;100.00;99857.16;4818638;29;19953;-71
2022/03/14 06:48:14;;;;;;;;;;;;;;;5.74;100.00;99860.59;4825239;29;20335;-71
2022/03/14 06:50:41;;;;;;;;;;;;;;;5.78;100.00;99864.34;4821886;29;20274;-71
2022/03/14 06:53:08;;;;;;;;;;;;;;;5.84;100.00;99871.38;4823780;29;20434;-71
2022/03/14 06:55:35;;;;;;;;;;;;;;;5.92;100.00;99878.06;4823348;29;20244;-71
2022/03/14 06:58:03;;;;;;;;;;;;;;;5.96;100.00;99873.50;4819950;29;19965;-71
2022/03/14 07:00:30;;;;;;;;;;;;;;;6.03;100.00;99873.81;4822336;29;19962;-71
2022/03/14 07:02:58;;;;;;;;;;;;;;;6.13;100.00;99872.63;4826387;29;19960;-71
2022/03/14 07:05:26;;;;;;;;;;;;;;;6.22;100.00;99877.03;4828623;29;20273;-71
2022/03/14 07:07:53;;;;;;;;;;;;;;;6.29;100.00;99880.09;4825406;29;19964;-71
2022/03/14 07:10:21;;;;;;;;;;;;;;;6.39;100.00;99884.50;4829285;29;20276;-71
2022/03/14 07:12:50;;;;;;;;;;;;;;;6.42;100.00;99881.06;4829718;29;19963;-71
2022/03/14 07:15:21;;;;;;;;;;;;;;;6.50;100.00;99889.34;4829132;29;20398;-71
2022/03/14 07:17:52;;;;;;;;;;;;;;;6.58;100.00;99890.47;4828334;29;19949;-71
2022/03/14 07:20:20;;;;;;;;;;;;;;;6.63;100.00;99896.66;4825389;29;19961;-70
2022/03/14 07:22:48;;;;;;;;;;;;;;;6.67;100.00;99902.38;4828095;29;19976;-71
2022/03/14 07:25:20;;;;;;;;;;;;;;;6.71;100.00;99908.06;4827888;29;19966;-70
2022/03/14 07:27:47;;;;;;;;;;;;;;;6.73;100.00;99905.78;4830796;29;19959;-70
2022/03/14 07:30:14;;;;;;;;;;;;;;;6.66;100.00;99917.41;4815295;29;19960;-71
2022/03/14 07:32:42;;;;;;;;;;;;;;;6.64;100.00;99925.28;4811139;29;19962;-71
2022/03/14 07:35:10;;;;;;;;;;;;;;;6.66;100.00;99925.75;4811323;29;19961;-71
2022/03/14 07:37:38;;;;;;;;;;;;;;;6.67;100.00;99923.81;4819114;29;19984;-70
2022/03/14 07:40:06;;;;;;;;;;;;;;;6.71;100.00;99928.34;4828442;29;20243;-71
2022/03/14 07:42:39;;;;;;;;;;;;;;;6.70;100.00;99932.28;4828316;29;19960;-70
2022/03/14 07:45:06;;;;;;;;;;;;;;;6.73;100.00;99931.63;4828006;29;19982;-70
2022/03/14 07:47:34;;;;;;;;;;;;;;;6.73;100.00;99939.13;4827704;29;19951;-70
2022/03/14 07:50:01;;;;;;;;;;;;;;;6.71;100.00;99939.47;4828620;29;19986;-70
2022/03/14 07:52:28;;;;;;;;;;;;;;;6.79;100.00;99952.53;4828404;29;19959;-70
2022/03/14 07:54:56;;;;;;;;;;;;;;;6.78;100.00;99950.06;4828851;29;19948;-70
2022/03/14 07:57:23;;;;;;;;;;;;;;;6.79;100.00;99952.53;4824960;29;20343;-70
2022/03/14 07:59:51;;;;;;;;;;;;;;;6.84;100.00;99957.91;4827084;29;19988;-70
2022/03/14 08:02:19;;;;;;;;;;;;;;;6.80;100.00;99962.50;4828457;29;19955;-70
2022/03/14 08:04:47;;;;;;;;;;;;;;;6.87;100.00;99951.66;4827089;29;19979;-71
2022/03/14 08:07:14;;;;;;;;;;;;;;;6.87;100.00;99960.00;4827206;29;19951;-70
2022/03/14 08:09:42;;;;;;;;;;;;;;;6.86;100.00;99966.72;4827918;29;19987;-70
2022/03/14 08:12:12;;;;;;;;;;;;;;;6.92;100.00;99970.94;4828189;29;20355;-70
2022/03/14 08:14:40;;;;;;;;;;;;;;;6.95;100.00;99988.94;4828398;29;19948;-70
2022/03/14 08:17:07;;;;;;;;;;;;;;;7.01;100.00;99985.66;4827853;29;19958;-70
2022/03/14 08:19:35;;;;;;;;;;;;;;;7.00;100.00;99980.41;4828155;29;19950;-70
2022/03/14 08:22:02;;;;;;;;;;;;;;;7.04;100.00;99973.84;4827468;29;20404;-70
2022/03/14 08:24:30;;;;;;;;;;;;;;;7.04;100.00;99976.63;4828155;29;19975;-70
2022/03/14 08:26:57;;;;;;;;;;;;;;;7.07;100.00;99977.91;4821183;29;20381;-70
2022/03/14 08:29:24;;;;;;;;;;;;;;;7.12;100.00;99980.53;4820692;29;19959;-70
2022/03/14 08:31:53;;;;;;;;;;;;;;;7.20;100.00;99985.22;4827814;29;19954;-70
2022/03/14 08:34:20;;;;;;;;;;;;;;;7.15;100.00;99988.19;4828273;29;19948;-70
2022/03/14 08:36:47;;;;;;;;;;;;;;;7.24;100.00;99984.22;4811226;29;19961;-70
2022/03/14 08:39:15;;;;;;;;;;;;;;;7.34;100.00;99993.34;4827895;29;19960;-70
2022/03/14 08:41:42;;;;;;;;;;;;;;;7.32;100.00;99987.28;4828162;29;19948;-70
2022/03/14 08:44:10;;;;;;;;;;;;;;;7.34;100.00;99987.78;4827722;29;19957;-70
2022/03/14 08:46:38;;;;;;;;;;;;;;;7.55;100.00;99995.03;4827157;29;19956;-70
2022/03/14 08:49:06;;;;;;;;;;;;;;;7.65;100.00;99999.41;4827303;29;19951;-70
2022/03/14 08:51:34;;;;;;;;;;;;;;;7.82;100.00;100008.44;4827667;29;19954;-71
2022/03/14 08:54:01;;;;;;;;;;;;;;;7.89;100.00;100019.06;4812000;29;20333;-70
2022/03/14 08:56:28;;;;;;;;;;;;;;;7.95;100.00;100014.91;4826958;29;19984;-70
2022/03/14 08:58:56;;;;;;;;;;;;;;;7.99;100.00;100021.44;4827698;29;19950;-70
2022/03/14 09:01:23;;;;;;;;;;;;;;;8.02;100.00;100017.97;4827788;29;19960;-70
2022/03/14 09:03:51;;;;;;;;;;;;;;;7.97;100.00;100020.97;4827777;29;19955;-70
2022/03/14 09:06:18;;;;;;;;;;;;;;;7.89;100.00;100022.66;4825736;29;19978;-70
2022/03/14 09:08:46;;;;;;;;;;;;;;;7.93;100.00;100022.78;4827332;29;20267;-70
2022/03/14 09:11:14;;;;;;;;;;;;;;;8.14;100.00;100029.19;4827528;29;19949;-70
2022/03/14 09:13:41;;;;;;;;;;;;;;;8.26;100.00;100023.72;4827995;29;19953;-70
2022/03/14 09:16:08;;;;;;;;;;;;;;;8.52;100.00;100031.84;4826881;29;19963;-70
2022/03/14 09:18:36;;;;;;;;;;;;;;;8.70;100.00;100021.34;4826934;29;20026;-70
2022/03/14 09:21:03;;;;;;;;;;;;;;;8.84;100.00;100027.41;4827287;29;20375;-70
2022/03/14 09:23:31;;;;;;;;;;;;;;;8.90;100.00;100029.63;4826992;29;19950;-70
2022/03/14 09:25:58;;;;;;;;;;;;;;;8.86;100.00;100030.66;4810326;29;20355;-70
2022/03/14 09:28:26;;;;;;;;;;;;;;;8.77;100.00;100029.97;4826946;29;19957;-70
2022/03/14 09:30:53;;;;;;;;;;;;;;;8.82;100.00;100036.13;4827615;29;19958;-70
2022/03/14 09:33:21;;;;;;;;;;;;;;;8.95;100.00;100035.00;4827691;29;19956;-71
2022/03/14 09:35:49;;;;;;;;;;;;;;;9.18;100.00;100039.00;4826848;29;19952;-70
2022/03/14 09:38:17;;;;;;;;;;;;;;;9.47;100.00;100039.97;4827014;29;19955;-70
2022/03/14 09:40:45;;;;;;;;;;;;;;;9.70;100.00;100049.53;4826813;29;20262;-70
2022/03/14 09:43:15;;;;;;;;;;;;;;;9.80;100.00;100037.88;4826844;29;19949;-70
2022/03/14 09:45:45;;;;;;;;;;;;;;;9.87;100.00;100044.50;4826888;29;19969;-70
2022/03/14 09:48:14;;;;;;;;;;;;;;;9.60;100.00;100038.81;4826798;29;19951;-70
2022/03/14 09:50:45;;;;;;;;;;;;;;;9.95;100.00;100036.34;4827023;29;20223;-70
2022/03/14 09:53:14;;;;;;;;;;;;;;;9.91;100.00;100037.03;4827014;29;19956;-70
2022/03/14 09:55:46;;;;;;;;;;;;;;;9.82;100.00;100038.34;4826047;29;19949;-70
2022/03/14 09:58:15;;;;;;;;;;;;;;;9.87;100.00;100026.91;4826289;29;20255;-70
2022/03/14 10:00:43;;;;;;;;;;;;;;;9.90;100.00;100037.41;4826237;29;19985;-70
2022/03/14 10:03:12;;;;;;;;;;;;;;;10.08;100.00;100037.94;4826074;29;19949;-70
2022/03/14 10:05:40;;;;;;;;;;;;;;;10.26;100.00;100039.34;4827109;29;19971;-70
2022/03/14 10:08:07;;;;;;;;;;;;;;;10.35;100.00;100043.63;4826402;29;19945;-71
2022/03/14 10:10:37;;;;;;;;;;;;;;;10.38;99.36;100039.28;4826848;29;19960;-70
2022/03/14 10:13:06;;;;;;;;;;;;;;;10.05;98.12;100035.88;4826081;29;19981;-70
2022/03/14 10:15:37;;;;;;;;;;;;;;;10.08;98.10;100035.13;4822872;29;19962;-70
2022/03/14 10:18:11;;;;;;;;;;;;;;;10.10;98.68;100030.81;4816402;29;19952;-70
2022/03/14 10:20:55;;;;;;;;;;;;;;;9.84;96.70;100028.44;4825198;29;19979;-70
2022/03/14 10:23:33;;;;;;;;;;;;;;;10.08;95.88;100032.34;4816982;29;19953;-70
2022/03/14 10:26:00;;;;;;;;;;;;;;;9.57;95.13;100029.16;4825495;29;19982;-70
2022/03/14 10:28:31;;;;;;;;;;;;;;;9.63;92.15;100041.72;4826308;29;19949;-70
2022/03/14 10:31:04;;;;;;;;;;;;;;;9.69;88.09;100031.94;4825959;29;20444;-71
2022/03/14 10:33:33;;;;;;;;;;;;;;;9.74;88.63;100036.47;4825363;29;20248;-70
2022/03/14 10:36:00;;;;;;;;;;;;;;;9.77;85.11;100039.38;4823963;29;19987;-70
2022/03/14 10:38:31;;;;;;;;;;;;;;;9.72;84.87;100036.84;4826291;29;19956;-70
2022/03/14 10:41:11;;;;;;;;;;;;;;;9.78;80.46;100048.59;4822464;29;20290;-70
2022/03/14 10:43:48;;;;;;;;;;;;;;;9.93;79.20;100048.69;4826269;29;19954;-70
2022/03/14 10:46:25;;;;;;;;;;;;;;;10.00;81.58;100038.91;4826295;29;19971;-70
2022/03/14 10:48:53;;;;;;;;;;;;;;;10.07;84.85;100033.53;4825999;29;19949;-70
2022/03/14 10:51:20;;;;;;;;;;;;;;;10.05;88.15;100033.84;4826404;29;19951;-70
2022/03/14 10:53:47;;;;;;;;;;;;;;;9.96;89.82;100029.56;4809633;29;19960;-71
2022/03/14 10:56:16;;;;;;;;;;;;;;;10.07;91.53;100025.13;4825649;29;19952;-70
2022/03/14 10:58:43;;;;;;;;;;;;;;;10.22;92.09;100021.66;4826022;29;19949;-70
2022/03/14 11:01:12;;;;;;;;;;;;;;;10.32;91.82;100026.75;4810319;29;20386;-70
2022/03/14 11:03:40;;;;;;;;;;;;;;;10.22;92.62;100022.44;4826245;29;19950;-70
2022/03/14 11:06:10;;;;;;;;;;;;;;;10.53;91.29;100021.75;4825633;29;20404;-70
2022/03/14 11:08:45;;;;;;;;;;;;;;;10.62;89.71;100016.00;4824453;29;19952;-71
2022/03/14 11:11:17;;;;;;;;;;;;;;;10.32;91.80;100024.75;4809804;29;20510;-70
2022/03/14 11:13:48;;;;;;;;;;;;;;;10.38;88.55;100022.50;4825369;29;19959;-70
2022/03/14 11:16:20;;;;;;;;;;;;;;;10.28;85.53;100018.25;4825085;29;19952;-71
2022/03/14 11:18:48;;;;;;;;;;;;;;;10.42;79.93;100013.06;4825189;29;20336;-71
2022/03/14 11:21:16;;;;;;;;;;;;;;;10.31;83.97;100011.94;4825958;29;20268;-71
2022/03/14 11:23:44;;;;;;;;;;;;;;;10.39;85.38;100008.16;4826128;29;20244;-70
2022/03/14 11:26:13;;;;;;;;;;;;;;;10.68;79.27;99998.63;4825263;29;20377;-70
2022/03/14 11:28:41;;;;;;;;;;;;;;;10.93;78.20;99991.69;4825377;29;20368;-70
2022/03/14 11:31:08;;;;;;;;;;;;;;;11.31;73.73;99996.69;4825795;29;20318;-70
2022/03/14 11:33:38;;;;;;;;;;;;;;;11.37;71.95;99988.84;4825815;29;19947;-70
2022/03/14 11:36:06;;;;;;;;;;;;;;;11.01;74.81;99989.91;4825570;29;20294;-70
2022/03/14 11:38:34;;;;;;;;;;;;;;;11.15;73.62;99984.69;4824833;29;19994;-72
2022/03/14 11:41:02;;;;;;;;;;;;;;;11.28;74.29;99968.59;4822839;29;19953;-72
2022/03/14 11:43:30;;;;;;;;;;;;;;;11.05;77.78;99960.81;4825159;29;19955;-72
2022/03/14 11:46:01;;;;;;;;;;;;;;;11.12;76.62;99963.84;4824187;29;19967;-72
2022/03/14 11:48:30;;;;;;;;;;;;;;;11.41;76.40;99961.72;4825693;29;19955;-71
2022/03/14 11:50:58;;;;;;;;;;;;;;;11.72;81.47;99956.91;4828065;29;19955;-72
2022/03/14 11:53:30;;;;;;;;;;;;;;;11.61;77.47;99955.00;4811506;29;19956;-70
2022/03/14 11:55:59;;;;;;;;;;;;;;;11.68;78.59;99955.22;4827445;29;19947;-70
2022/03/14 11:58:29;;;;;;;;;;;;;;;11.65;77.10;99959.53;4826024;29;19960;-70
2022/03/14 12:00:57;;;;;;;;;;;;;;;11.56;71.40;99967.31;4827840;29;20232;-71
2022/03/14 12:03:37;;;;;;;;;;;;;;;11.48;69.44;99964.69;4812797;29;19953;-70
2022/03/14 12:06:04;;;;;;;;;;;;;;;11.45;73.40;99957.84;4825128;29;20377;-70
2022/03/14 12:08:32;;;;;;;;;;;;;;;11.31;72.69;99959.47;4831897;29;19955;-70
2022/03/14 12:11:31;;;;;;;;;;;;;;;11.28;71.64;99957.38;4833942;29;19960;-70
2022/03/14 12:13:58;;;;;;;;;;;;;;;11.12;78.08;99960.22;4802058;29;19954;-70
2022/03/14 12:16:39;;;;;;;;;;;;;;;10.97;75.84;99959.03;4827160;29;19980;-70
2022/03/14 12:19:25;;;;;;;;;;;;;;;10.70;72.11;99971.09;4842189;29;20029;-70
2022/03/14 12:21:53;;;;;;;;;;;;;;;11.05;74.21;99960.03;4828065;29;19984;-70
2022/03/14 12:24:40;;;;;;;;;;;;;;;10.97;78.10;99956.25;4842237;29;19955;-70
2022/03/14 12:27:18;;;;;;;;;;;;;;;10.95;81.25;99953.00;4801407;29;19968;-70
2022/03/14 12:29:46;;;;;;;;;;;;;;;11.06;79.79;99947.66;4827555;29;19965;-70
2022/03/14 12:32:23;;;;;;;;;;;;;;;11.04;79.09;99944.41;4827760;29;19957;-70
2022/03/14 12:34:56;;;;;;;;;;;;;;;10.93;81.61;99940.53;4810244;29;19955;-70
2022/03/14 12:37:26;;;;;;;;;;;;;;;11.15;79.18;99940.69;4809699;29;19951;-70
2022/03/14 12:39:53;;;;;;;;;;;;;;;11.20;77.01;99940.41;4809906;29;19957;-70
2022/03/14 12:42:23;;;;;;;;;;;;;;;11.10;74.42;99935.38;4810114;29;19954;-70
2022/03/14 12:45:09;;;;;;;;;;;;;;;11.09;74.37;99938.53;4827061;29;19981;-70
2022/03/14 12:47:48;;;;;;;;;;;;;;;11.00;77.00;99947.09;4826277;29;19965;-70
2022/03/14 12:50:34;;;;;;;;;;;;;;;11.13;77.80;99936.63;4827757;29;19958;-70
2022/03/14 12:53:02;;;;;;;;;;;;;;;11.03;74.86;99937.97;4827458;29;19954;-70
2022/03/14 12:55:29;;;;;;;;;;;;;;;11.13;75.70;99937.44;4828131;29;19953;-70
2022/03/14 12:57:58;;;;;;;;;;;;;;;10.93;77.51;99930.13;4827102;29;20260;-70
2022/03/14 13:00:26;;;;;;;;;;;;;;;11.10;77.41;99929.75;4827319;29;19951;-70
2022/03/14 13:03:02;;;;;;;;;;;;;;;11.05;75.49;99934.84;4813317;29;19958;-70
2022/03/14 13:05:30;;;;;;;;;;;;;;;11.20;75.84;99934.81;4827820;29;19956;-70
2022/03/14 13:08:02;;;;;;;;;;;;;;;11.17;75.61;99935.53;4826919;29;19985;-70
2022/03/14 13:10:39;;;;;;;;;;;;;;;11.10;76.47;99928.97;4826273;29;20345;-70
2022/03/14 13:13:09;;;;;;;;;;;;;;;11.21;78.12;99942.06;4820277;29;19948;-70
2022/03/14 13:15:37;;;;;;;;;;;;;;;11.22;76.73;99946.47;4826424;29;19953;-70
2022/03/14 13:18:15;;;;;;;;;;;;;;;11.03;76.25;99937.97;4810236;29;19955;-70
2022/03/14 13:20:43;;;;;;;;;;;;;;;11.18;76.72;99941.94;4825819;29;19976;-70
2022/03/14 13:23:15;;;;;;;;;;;;;;;11.19;75.85;99940.78;4808760;29;20249;-70
2022/03/14 13:25:46;;;;;;;;;;;;;;;11.09;76.24;99936.56;4826141;29;20288;-70
2022/03/14 13:28:30;;;;;;;;;;;;;;;11.11;73.67;99934.19;4826135;29;20002;-70
2022/03/14 13:30:58;;;;;;;;;;;;;;;11.09;72.74;99928.16;4826342;29;19950;-70
2022/03/14 13:33:28;;;;;;;;;;;;;;;10.89;74.36;99932.03;4826088;29;19951;-70
2022/03/14 13:35:57;;;;;;;;;;;;;;;10.81;72.09;99933.00;4826990;29;19958;-70
2022/03/14 13:38:46;;;;;;;;;;;;;;;10.84;71.80;99937.91;4821603;29;19948;-70
2022/03/14 13:41:15;;;;;;;;;;;;;;;10.95;66.82;99936.19;4826433;29;20534;-70
2022/03/14 13:43:43;;;;;;;;;;;;;;;10.94;64.42;99942.13;4827031;29;20359;-70
2022/03/14 13:46:31;;;;;;;;;;;;;;;10.98;63.60;99940.25;4826085;29;19950;-70
2022/03/14 13:49:14;;;;;;;;;;;;;;;10.91;60.06;99943.66;4816083;29;19981;-70
2022/03/14 13:51:49;;;;;;;;;;;;;;;10.88;58.41;99947.19;4825919;29;20251;-70
2022/03/14 13:54:29;;;;;;;;;;;;;;;10.94;58.41;99951.34;4825911;29;19955;-70
2022/03/14 13:57:08;;;;;;;;;;;;;;;10.94;61.24;99945.75;4803795;29;19951;-70
2022/03/14 13:59:40;;;;;;;;;;;;;;;11.00;57.37;99943.50;4826065;29;19957;-70
2022/03/14 14:02:11;;;;;;;;;;;;;;;11.08;61.20;99942.50;4826769;29;19958;-70
2022/03/14 14:04:38;;;;;;;;;;;;;;;11.06;63.50;99951.25;4826655;29;19954;-70
2022/03/14 14:07:21;;;;;;;;;;;;;;;10.92;62.20;99952.88;4826421;29;19973;-70
2022/03/14 14:10:11;;;;;;;;;;;;;;;10.66;65.54;99949.78;4826315;29;20260;-70
2022/03/14 14:12:39;;;;;;;;;;;;;;;10.66;65.52;99947.00;4826157;29;19969;-70
2022/03/14 14:15:08;;;;;;;;;;;;;;;10.73;65.70;99952.78;4810728;29;19946;-70
2022/03/14 14:17:42;;;;;;;;;;;;;;;10.75;64.75;99947.63;4825781;29;19951;-70
2022/03/14 14:20:09;;;;;;;;;;;;;;;10.82;65.54;99945.84;4822450;29;19966;-70
2022/03/14 14:22:39;;;;;;;;;;;;;;;10.86;66.86;99940.31;4824187;29;19956;-70
2022/03/14 14:25:13;;;;;;;;;;;;;;;10.79;69.71;99938.16;4824407;29;19956;-70
2022/03/14 14:27:49;;;;;;;;;;;;;;;10.86;68.87;99931.91;4823536;29;19968;-70
2022/03/14 14:30:24;;;;;;;;;;;;;;;10.99;68.31;99939.91;4825552;29;20261;-70
2022/03/14 14:32:52;;;;;;;;;;;;;;;10.96;68.25;99942.59;4808952;29;19959;-70
2022/03/14 14:35:21;;;;;;;;;;;;;;;10.94;68.43;99944.94;4825016;29;19989;-70
2022/03/14 14:37:48;;;;;;;;;;;;;;;10.91;67.67;99945.66;4825082;29;20377;-70
2022/03/14 14:40:16;;;;;;;;;;;;;;;10.82;68.20;99951.44;4824975;29;19949;-70
2022/03/14 14:42:43;;;;;;;;;;;;;;;10.84;67.77;99949.09;4825085;29;19957;-70
2022/03/14 14:45:11;;;;;;;;;;;;;;;10.75;68.08;99945.66;4824856;29;19957;-70
2022/03/14 14:47:38;;;;;;;;;;;;;;;10.72;72.63;99946.38;4824805;29;19965;-70
2022/03/14 14:50:07;;;;;;;;;;;;;;;10.70;70.30;99939.50;4809493;29;19949;-70
2022/03/14 14:52:35;;;;;;;;;;;;;;;10.68;69.66;99942.66;4824859;29;19960;-70
2022/03/14 14:55:04;;;;;;;;;;;;;;;10.67;67.31;99932.63;4825102;29;19960;-70
2022/03/14 14:57:32;;;;;;;;;;;;;;;10.66;68.38;99928.19;4824695;29;20259;-70
2022/03/14 15:00:00;;;;;;;;;;;;;;;10.68;68.51;99925.06;4824342;29;20396;-70
2022/03/14 15:02:29;;;;;;;;;;;;;;;10.61;69.11;99925.69;4823368;29;19960;-70
2022/03/14 15:04:56;;;;;;;;;;;;;;;10.53;68.98;99933.06;4832596;29;19957;-70
2022/03/14 15:07:23;;;;;;;;;;;;;;;10.55;69.48;99936.31;4827606;29;19973;-70
2022/03/14 15:09:51;;;;;;;;;;;;;;;10.57;70.91;99930.38;4825716;29;19949;-70
2022/03/14 15:12:18;;;;;;;;;;;;;;;10.57;71.80;99924.78;4822729;29;19952;-70
2022/03/14 15:14:46;;;;;;;;;;;;;;;10.48;71.36;99919.34;4822656;29;20390;-70
2022/03/14 15:17:14;;;;;;;;;;;;;;;10.47;71.72;99919.69;4823151;29;20395;-70
2022/03/14 15:19:41;;;;;;;;;;;;;;;10.47;71.90;99908.50;4824773;29;19951;-70
2022/03/14 15:22:09;;;;;;;;;;;;;;;10.45;71.89;99911.66;4825113;29;19986;-70
2022/03/14 15:24:38;;;;;;;;;;;;;;;10.49;70.06;99912.56;4828961;29;19949;-70
2022/03/14 15:27:05;;;;;;;;;;;;;;;10.52;71.85;99909.06;4828184;29;19955;-70
2022/03/14 15:29:32;;;;;;;;;;;;;;;10.47;72.48;99916.91;4811849;29;19966;-70
2022/03/14 15:32:00;;;;;;;;;;;;;;;10.46;72.54;99915.28;4828229;29;19960;-70
2022/03/14 15:34:27;;;;;;;;;;;;;;;10.40;70.43;99916.72;4818270;29;19956;-70
2022/03/14 15:36:57;;;;;;;;;;;;;;;10.39;70.07;99915.09;4823225;29;19949;-70
2022/03/14 15:39:25;;;;;;;;;;;;;;;10.40;70.73;99917.53;4827072;29;19957;-70
2022/03/14 15:41:52;;;;;;;;;;;;;;;10.44;72.16;99926.03;4828242;29;19948;-70
2022/03/14 15:44:19;;;;;;;;;;;;;;;10.43;71.98;99922.41;4827881;29;19965;-70
2022/03/14 15:46:47;;;;;;;;;;;;;;;10.43;72.32;99927.19;4828261;29;19958;-70
2022/03/14 15:49:15;;;;;;;;;;;;;;;10.39;71.09;99926.28;4827465;29;19995;-70
2022/03/14 15:51:42;;;;;;;;;;;;;;;10.39;70.04;99932.66;4819485;29;19948;-70
2022/03/14 15:54:09;;;;;;;;;;;;;;;10.44;68.39;99938.00;4823198;29;19959;-70
2022/03/14 15:56:40;;;;;;;;;;;;;;;10.38;69.51;99931.06;4826925;29;19949;-70
2022/03/14 15:59:08;;;;;;;;;;;;;;;10.32;70.63;99921.28;4827408;29;19956;-70
2022/03/14 16:01:35;;;;;;;;;;;;;;;10.29;71.98;99926.78;4826243;29;19950;-70
2022/03/14 16:04:03;;;;;;;;;;;;;;;10.27;72.09;99929.94;4821460;29;20266;-70
2022/03/14 16:06:34;;;;;;;;;;;;;;;10.28;70.97;99936.34;4825002;29;20363;-70
2022/03/14 16:09:02;;;;;;;;;;;;;;;10.24;70.44;99941.03;4827018;29;19971;-70
2022/03/14 16:11:30;;;;;;;;;;;;;;;10.17;72.11;99940.81;4824367;29;20297;-70
2022/03/14 16:13:57;;;;;;;;;;;;;;;10.14;70.13;99935.94;4827269;29;19956;-70
2022/03/14 16:16:24;;;;;;;;;;;;;;;10.02;70.38;99928.38;4827950;29;19961;-70
2022/03/14 16:18:52;;;;;;;;;;;;;;;10.11;70.34;99931.03;4825633;29;19976;-70
2022/03/14 16:21:19;;;;;;;;;;;;;;;10.07;68.81;99927.31;4828212;29;20585;-70
2022/03/14 16:23:47;;;;;;;;;;;;;;;10.06;69.13;99922.88;4828042;29;19961;-70
2022/03/14 16:26:14;;;;;;;;;;;;;;;10.00;68.85;99938.28;4825476;29;19979;-70
2022/03/14 16:28:42;;;;;;;;;;;;;;;9.98;70.49;99937.84;4827743;29;20361;-70
2022/03/14 16:31:09;;;;;;;;;;;;;;;10.06;69.14;99937.69;4823775;29;19965;-70
2022/03/14 16:33:36;;;;;;;;;;;;;;;10.01;70.28;99949.09;4826294;29;19952;-70
2022/03/14 16:36:04;;;;;;;;;;;;;;;10.03;69.27;99951.53;4825960;29;19958;-70
2022/03/14 16:38:31;;;;;;;;;;;;;;;10.00;68.35;99957.84;4825949;29;20271;-70
2022/03/14 16:41:00;;;;;;;;;;;;;;;10.01;66.63;99963.06;4824719;29;19964;-70
2022/03/14 16:43:28;;;;;;;;;;;;;;;10.00;66.98;99969.03;4827353;29;19947;-70
2022/03/14 16:45:55;;;;;;;;;;;;;;;9.91;69.14;99977.53;4823278;29;19961;-70
2022/03/14 16:48:22;;;;;;;;;;;;;;;9.87;69.96;99983.03;4824226;29;19973;-70
2022/03/14 16:50:50;;;;;;;;;;;;;;;9.85;70.26;99984.56;4823849;29;19956;-70
2022/03/14 16:53:17;;;;;;;;;;;;;;;9.82;70.68;99997.25;4820160;29;19954;-70
2022/03/14 16:55:47;;;;;;;;;;;;;;;9.80;70.42;99999.59;4824075;29;19966;-70
2022/03/14 16:58:14;;;;;;;;;;;;;;;9.80;70.77;99993.19;4826086;29;20369;-70
2022/03/14 17:00:43;;;;;;;;;;;;;;;9.74;71.60;99987.00;4826063;29;19948;-70
2022/03/14 17:03:10;;;;;;;;;;;;;;;9.69;72.19;99994.81;4825179;29;19948;-70
2022/03/14 17:05:39;;;;;;;;;;;;;;;9.70;71.08;99996.44;4823801;29;19982;-70
2022/03/14 17:08:08;;;;;;;;;;;;;;;9.66;71.59;99999.13;4826790;29;20265;-70
2022/03/14 17:10:35;;;;;;;;;;;;;;;9.63;72.13;100007.41;4823314;29;19949;-70
2022/03/14 17:13:04;;;;;;;;;;;;;;;9.59;72.08;100015.66;4825606;29;20348;-70
2022/03/14 17:15:31;;;;;;;;;;;;;;;9.54;71.86;100004.72;4825664;29;19954;-70
2022/03/14 17:17:59;;;;;;;;;;;;;;;9.53;72.46;100005.88;4827023;29;19955;-70
2022/03/14 17:20:34;;;;;;;;;;;;;;;9.51;72.38;100005.41;4825974;29;19972;-70
2022/03/14 17:23:02;;;;;;;;;;;;;;;9.42;73.66;100004.72;4826911;29;19949;-70
2022/03/14 17:25:30;;;;;;;;;;;;;;;9.38;72.99;100012.16;4826236;29;19960;-70
2022/03/14 17:27:58;;;;;;;;;;;;;;;9.37;73.08;100006.91;4825579;29;19956;-70
2022/03/14 17:30:26;;;;;;;;;;;;;;;9.20;73.61;100013.53;4826816;29;19954;-70
2022/03/14 17:32:56;;;;;;;;;;;;;;;9.16;73.71;100023.78;4827020;29;19947;-70
2022/03/14 17:35:26;;;;;;;;;;;;;;;9.02;83.73;100026.06;4826889;29;19957;-70
2022/03/14 17:37:54;;;;;;;;;;;;;;;9.12;83.02;100025.63;4826036;29;19952;-70
2022/03/14 17:40:21;;;;;;;;;;;;;;;9.01;87.65;100022.47;4826734;29;19949;-71
2022/03/14 17:42:49;;;;;;;;;;;;;;;8.99;88.69;100026.75;4826811;29;20340;-70
2022/03/14 17:45:16;;;;;;;;;;;;;;;8.96;90.65;100033.03;4825837;29;19954;-70
2022/03/14 17:47:43;;;;;;;;;;;;;;;8.91;92.64;100039.66;4823789;29;19953;-70
2022/03/14 17:50:15;;;;;;;;;;;;;;;8.88;96.73;100048.69;4826616;29;19970;-70
2022/03/14 17:52:43;;;;;;;;;;;;;;;8.87;98.92;100046.25;4825977;29;19960;-70
2022/03/14 17:55:10;;;;;;;;;;;;;;;8.83;98.87;100048.09;4826298;29;19950;-70
2022/03/14 17:57:39;;;;;;;;;;;;;;;8.80;100.00;100048.81;4824723;29;19956;-70
2022/03/14 18:00:07;;;;;;;;;;;;;;;8.76;100.00;100050.63;4823646;29;19949;-71
2022/03/14 18:02:43;;;;;;;;;;;;;;;8.75;100.00;100049.84;4824764;29;19959;-70
2022/03/14 18:05:11;;;;;;;;;;;;;;;8.65;100.00;100057.81;4822038;29;19949;-70
2022/03/14 18:07:41;;;;;;;;;;;;;;;8.63;100.00;100060.94;4825372;29;19949;-71
2022/03/14 18:10:09;;;;;;;;;;;;;;;8.59;100.00;100069.16;4823940;29;19968;-70
2022/03/14 18:12:37;;;;;;;;;;;;;;;8.57;100.00;100065.09;4820422;29;19952;-70
2022/03/14 18:15:05;;;;;;;;;;;;;;;8.57;100.00;100071.50;4817090;29;20638;-70
2022/03/14 18:17:34;;;;;;;;;;;;;;;8.54;100.00;100069.38;4826490;29;19953;-70
2022/03/14 18:20:01;;;;;;;;;;;;;;;8.53;100.00;100067.72;4826028;29;19970;-70
2022/03/14 18:22:30;;;;;;;;;;;;;;;8.52;100.00;100074.47;4826592;29;19975;-70
2022/03/14 18:24:57;;;;;;;;;;;;;;;8.51;100.00;100081.19;4827137;29;19947;-70